sensor_id;sensor_type;location;lat;lon;timestamp;P1;durP1;ratioP1;P2;durP2;ratioP2
29422;SDS011;16399;51.686;8.684;2024-01-27T00:01:38;17.25;;;2.60;;
29422;SDS011;16399;51.686;8.684;2024-01-27T00:04:40;17.48;;;3.30;;
29422;SDS011;16399;51.686;8.684;2024-01-27T00:07:42;16.07;;;2.62;;
29422;SDS011;16399;51.686;8.684;2024-01-27T00:10:44;30.57;;;3.52;;
29422;SDS011;16399;51.686;8.684;2024-01-27T00:13:47;17.30;;;2.83;;
29422;SDS011;16399;51.686;8.684;2024-01-27T00:16:49;19.55;;;3.62;;
29422;SDS011;16399;51.686;8.684;2024-01-27T00:19:51;24.10;;;3.25;;
29422;SDS011;16399;51.686;8.684;2024-01-27T00:22:54;19.45;;;3.05;;
29422;SDS011;16399;51.686;8.684;2024-01-27T00:25:56;27.65;;;3.55;;
29422;SDS011;16399;51.686;8.684;2024-01-27T00:28:58;17.17;;;3.05;;
29422;SDS011;16399;51.686;8.684;2024-01-27T00:32:01;18.50;;;3.17;;
29422;SDS011;16399;51.686;8.684;2024-01-27T00:35:03;15.68;;;2.98;;
29422;SDS011;16399;51.686;8.684;2024-01-27T00:38:06;17.00;;;3.02;;
29422;SDS011;16399;51.686;8.684;2024-01-27T00:41:09;23.18;;;3.30;;
29422;SDS011;16399;51.686;8.684;2024-01-27T00:44:13;21.60;;;3.25;;
29422;SDS011;16399;51.686;8.684;2024-01-27T00:47:15;18.70;;;3.47;;
29422;SDS011;16399;51.686;8.684;2024-01-27T00:50:17;22.45;;;3.17;;
29422;SDS011;16399;51.686;8.684;2024-01-27T00:53:20;22.30;;;4.22;;
29422;SDS011;16399;51.686;8.684;2024-01-27T00:56:22;16.17;;;4.03;;
29422;SDS011;16399;51.686;8.684;2024-01-27T00:59:24;26.90;;;4.40;;
29422;SDS011;16399;51.686;8.684;2024-01-27T01:02:27;23.83;;;3.17;;
29422;SDS011;16399;51.686;8.684;2024-01-27T01:05:29;21.73;;;3.80;;
29422;SDS011;16399;51.686;8.684;2024-01-27T01:08:32;28.73;;;4.35;;
29422;SDS011;16399;51.686;8.684;2024-01-27T01:11:34;19.60;;;3.75;;
29422;SDS011;16399;51.686;8.684;2024-01-27T01:14:36;17.75;;;3.47;;
29422;SDS011;16399;51.686;8.684;2024-01-27T01:17:40;25.30;;;3.40;;
29422;SDS011;16399;51.686;8.684;2024-01-27T01:20:42;24.47;;;3.90;;
29422;SDS011;16399;51.686;8.684;2024-01-27T01:23:45;17.62;;;3.70;;
29422;SDS011;16399;51.686;8.684;2024-01-27T01:26:47;22.80;;;3.85;;
29422;SDS011;16399;51.686;8.684;2024-01-27T01:29:49;17.65;;;3.17;;
29422;SDS011;16399;51.686;8.684;2024-01-27T01:32:52;23.00;;;3.72;;
29422;SDS011;16399;51.686;8.684;2024-01-27T01:35:54;21.15;;;3.45;;
29422;SDS011;16399;51.686;8.684;2024-01-27T01:38:57;20.68;;;3.45;;
29422;SDS011;16399;51.686;8.684;2024-01-27T01:41:59;21.82;;;3.92;;
29422;SDS011;16399;51.686;8.684;2024-01-27T01:45:01;21.17;;;3.33;;
29422;SDS011;16399;51.686;8.684;2024-01-27T01:48:04;19.23;;;3.67;;
29422;SDS011;16399;51.686;8.684;2024-01-27T01:51:07;22.32;;;3.72;;
29422;SDS011;16399;51.686;8.684;2024-01-27T01:54:10;24.65;;;4.05;;
29422;SDS011;16399;51.686;8.684;2024-01-27T01:57:13;13.83;;;4.08;;
29422;SDS011;16399;51.686;8.684;2024-01-27T02:00:16;18.42;;;4.62;;
29422;SDS011;16399;51.686;8.684;2024-01-27T02:03:19;17.77;;;4.40;;
29422;SDS011;16399;51.686;8.684;2024-01-27T02:06:21;25.10;;;4.87;;
29422;SDS011;16399;51.686;8.684;2024-01-27T02:09:23;16.80;;;4.58;;
29422;SDS011;16399;51.686;8.684;2024-01-27T02:12:26;18.87;;;4.90;;
29422;SDS011;16399;51.686;8.684;2024-01-27T02:15:28;24.00;;;4.53;;
29422;SDS011;16399;51.686;8.684;2024-01-27T02:18:30;18.77;;;4.72;;
29422;SDS011;16399;51.686;8.684;2024-01-27T02:21:33;28.07;;;5.20;;
29422;SDS011;16399;51.686;8.684;2024-01-27T02:24:35;19.25;;;4.20;;
29422;SDS011;16399;51.686;8.684;2024-01-27T02:27:37;29.07;;;4.90;;
29422;SDS011;16399;51.686;8.684;2024-01-27T02:30:39;25.05;;;5.45;;
29422;SDS011;16399;51.686;8.684;2024-01-27T02:33:42;19.27;;;4.58;;
29422;SDS011;16399;51.686;8.684;2024-01-27T02:36:44;30.27;;;4.78;;
29422;SDS011;16399;51.686;8.684;2024-01-27T02:39:46;23.18;;;5.10;;
29422;SDS011;16399;51.686;8.684;2024-01-27T02:42:49;24.00;;;4.85;;
29422;SDS011;16399;51.686;8.684;2024-01-27T02:45:51;22.80;;;4.85;;
29422;SDS011;16399;51.686;8.684;2024-01-27T02:48:53;17.02;;;4.53;;
29422;SDS011;16399;51.686;8.684;2024-01-27T02:51:56;19.40;;;4.85;;
29422;SDS011;16399;51.686;8.684;2024-01-27T02:54:58;20.02;;;4.22;;
29422;SDS011;16399;51.686;8.684;2024-01-27T02:58:00;24.70;;;4.97;;
29422;SDS011;16399;51.686;8.684;2024-01-27T03:01:03;17.40;;;4.97;;
29422;SDS011;16399;51.686;8.684;2024-01-27T03:04:05;14.47;;;4.03;;
29422;SDS011;16399;51.686;8.684;2024-01-27T03:07:07;16.30;;;4.30;;
29422;SDS011;16399;51.686;8.684;2024-01-27T03:10:10;23.85;;;5.35;;
29422;SDS011;16399;51.686;8.684;2024-01-27T03:13:12;22.95;;;5.30;;
29422;SDS011;16399;51.686;8.684;2024-01-27T03:16:15;28.45;;;5.33;;
29422;SDS011;16399;51.686;8.684;2024-01-27T03:19:19;27.80;;;5.53;;
29422;SDS011;16399;51.686;8.684;2024-01-27T03:22:21;23.30;;;5.45;;
29422;SDS011;16399;51.686;8.684;2024-01-27T03:25:24;26.60;;;5.62;;
29422;SDS011;16399;51.686;8.684;2024-01-27T03:28:27;20.08;;;4.78;;
29422;SDS011;16399;51.686;8.684;2024-01-27T03:31:32;18.65;;;4.58;;
29422;SDS011;16399;51.686;8.684;2024-01-27T03:34:35;16.55;;;4.70;;
29422;SDS011;16399;51.686;8.684;2024-01-27T03:37:37;18.12;;;4.12;;
29422;SDS011;16399;51.686;8.684;2024-01-27T03:40:40;17.05;;;4.78;;
29422;SDS011;16399;51.686;8.684;2024-01-27T03:43:42;20.20;;;4.37;;
29422;SDS011;16399;51.686;8.684;2024-01-27T03:46:44;18.20;;;4.55;;
29422;SDS011;16399;51.686;8.684;2024-01-27T03:49:48;17.10;;;4.83;;
29422;SDS011;16399;51.686;8.684;2024-01-27T03:52:50;16.07;;;4.62;;
29422;SDS011;16399;51.686;8.684;2024-01-27T03:55:53;19.98;;;5.00;;
29422;SDS011;16399;51.686;8.684;2024-01-27T03:58:55;25.20;;;4.92;;
29422;SDS011;16399;51.686;8.684;2024-01-27T04:01:57;20.48;;;5.05;;
29422;SDS011;16399;51.686;8.684;2024-01-27T04:05:00;22.90;;;5.20;;
29422;SDS011;16399;51.686;8.684;2024-01-27T04:08:04;18.23;;;5.05;;
29422;SDS011;16399;51.686;8.684;2024-01-27T04:11:07;27.85;;;5.20;;
29422;SDS011;16399;51.686;8.684;2024-01-27T04:14:09;26.52;;;5.35;;
29422;SDS011;16399;51.686;8.684;2024-01-27T04:17:11;26.82;;;5.55;;
29422;SDS011;16399;51.686;8.684;2024-01-27T04:20:14;20.88;;;4.40;;
29422;SDS011;16399;51.686;8.684;2024-01-27T04:23:16;22.52;;;5.08;;
29422;SDS011;16399;51.686;8.684;2024-01-27T04:26:18;20.40;;;4.80;;
29422;SDS011;16399;51.686;8.684;2024-01-27T04:29:21;21.20;;;4.78;;
29422;SDS011;16399;51.686;8.684;2024-01-27T04:32:23;16.73;;;4.70;;
29422;SDS011;16399;51.686;8.684;2024-01-27T04:35:27;25.83;;;4.63;;
29422;SDS011;16399;51.686;8.684;2024-01-27T04:38:29;23.73;;;5.37;;
29422;SDS011;16399;51.686;8.684;2024-01-27T04:41:31;17.52;;;4.42;;
29422;SDS011;16399;51.686;8.684;2024-01-27T04:44:33;24.85;;;4.40;;
29422;SDS011;16399;51.686;8.684;2024-01-27T04:47:36;17.73;;;4.58;;
29422;SDS011;16399;51.686;8.684;2024-01-27T04:50:38;19.20;;;4.78;;
29422;SDS011;16399;51.686;8.684;2024-01-27T04:53:41;24.65;;;4.35;;
29422;SDS011;16399;51.686;8.684;2024-01-27T04:56:43;14.40;;;4.47;;
29422;SDS011;16399;51.686;8.684;2024-01-27T04:59:45;28.35;;;4.90;;
29422;SDS011;16399;51.686;8.684;2024-01-27T05:02:48;26.45;;;5.17;;
29422;SDS011;16399;51.686;8.684;2024-01-27T05:05:50;19.87;;;5.00;;
29422;SDS011;16399;51.686;8.684;2024-01-27T05:08:52;23.47;;;5.25;;
29422;SDS011;16399;51.686;8.684;2024-01-27T05:11:55;22.62;;;4.42;;
29422;SDS011;16399;51.686;8.684;2024-01-27T05:14:57;19.92;;;4.83;;
29422;SDS011;16399;51.686;8.684;2024-01-27T05:17:59;15.18;;;4.30;;
29422;SDS011;16399;51.686;8.684;2024-01-27T05:21:01;24.50;;;4.75;;
29422;SDS011;16399;51.686;8.684;2024-01-27T05:24:04;26.40;;;4.85;;
29422;SDS011;16399;51.686;8.684;2024-01-27T05:27:06;18.37;;;4.70;;
29422;SDS011;16399;51.686;8.684;2024-01-27T05:30:09;18.82;;;4.58;;
29422;SDS011;16399;51.686;8.684;2024-01-27T05:33:11;25.95;;;4.95;;
29422;SDS011;16399;51.686;8.684;2024-01-27T05:36:13;22.58;;;5.35;;
29422;SDS011;16399;51.686;8.684;2024-01-27T05:39:16;19.42;;;4.00;;
29422;SDS011;16399;51.686;8.684;2024-01-27T05:42:19;27.85;;;5.47;;
29422;SDS011;16399;51.686;8.684;2024-01-27T05:45:21;19.10;;;4.40;;
29422;SDS011;16399;51.686;8.684;2024-01-27T05:48:23;18.77;;;4.40;;
29422;SDS011;16399;51.686;8.684;2024-01-27T05:51:25;20.50;;;4.35;;
29422;SDS011;16399;51.686;8.684;2024-01-27T05:54:28;19.00;;;4.58;;
29422;SDS011;16399;51.686;8.684;2024-01-27T05:57:30;24.57;;;4.80;;
29422;SDS011;16399;51.686;8.684;2024-01-27T06:00:32;14.78;;;4.55;;
29422;SDS011;16399;51.686;8.684;2024-01-27T06:03:35;15.45;;;3.67;;
29422;SDS011;16399;51.686;8.684;2024-01-27T06:06:40;25.95;;;5.10;;
29422;SDS011;16399;51.686;8.684;2024-01-27T06:09:42;18.30;;;4.17;;
29422;SDS011;16399;51.686;8.684;2024-01-27T06:12:44;20.40;;;4.15;;
29422;SDS011;16399;51.686;8.684;2024-01-27T06:15:47;15.13;;;4.00;;
29422;SDS011;16399;51.686;8.684;2024-01-27T06:18:49;20.20;;;4.12;;
29422;SDS011;16399;51.686;8.684;2024-01-27T06:21:51;17.67;;;4.03;;
29422;SDS011;16399;51.686;8.684;2024-01-27T06:24:54;21.02;;;3.80;;
29422;SDS011;16399;51.686;8.684;2024-01-27T06:27:56;25.00;;;4.55;;
29422;SDS011;16399;51.686;8.684;2024-01-27T06:30:58;21.00;;;3.95;;
29422;SDS011;16399;51.686;8.684;2024-01-27T06:34:01;18.40;;;4.10;;
29422;SDS011;16399;51.686;8.684;2024-01-27T06:37:03;16.37;;;4.78;;
29422;SDS011;16399;51.686;8.684;2024-01-27T06:40:05;22.25;;;4.37;;
29422;SDS011;16399;51.686;8.684;2024-01-27T06:46:13;19.05;;;4.37;;
29422;SDS011;16399;51.686;8.684;2024-01-27T06:49:15;12.40;;;3.87;;
29422;SDS011;16399;51.686;8.684;2024-01-27T06:52:18;20.17;;;4.70;;
29422;SDS011;16399;51.686;8.684;2024-01-27T06:55:20;22.00;;;4.83;;
29422;SDS011;16399;51.686;8.684;2024-01-27T06:58:22;19.25;;;3.70;;
29422;SDS011;16399;51.686;8.684;2024-01-27T07:01:25;23.40;;;4.50;;
29422;SDS011;16399;51.686;8.684;2024-01-27T07:04:27;23.50;;;4.47;;
29422;SDS011;16399;51.686;8.684;2024-01-27T07:07:29;17.52;;;4.53;;
29422;SDS011;16399;51.686;8.684;2024-01-27T07:10:32;19.23;;;3.75;;
29422;SDS011;16399;51.686;8.684;2024-01-27T07:13:34;22.22;;;4.37;;
29422;SDS011;16399;51.686;8.684;2024-01-27T07:16:37;20.72;;;4.80;;
29422;SDS011;16399;51.686;8.684;2024-01-27T07:19:39;19.00;;;4.42;;
29422;SDS011;16399;51.686;8.684;2024-01-27T07:22:41;20.15;;;3.72;;
29422;SDS011;16399;51.686;8.684;2024-01-27T07:25:43;19.62;;;3.98;;
29422;SDS011;16399;51.686;8.684;2024-01-27T07:28:46;22.40;;;4.62;;
29422;SDS011;16399;51.686;8.684;2024-01-27T07:31:49;23.55;;;5.30;;
29422;SDS011;16399;51.686;8.684;2024-01-27T07:34:51;19.85;;;4.10;;
29422;SDS011;16399;51.686;8.684;2024-01-27T07:37:54;20.77;;;3.72;;
29422;SDS011;16399;51.686;8.684;2024-01-27T07:40:56;24.92;;;3.37;;
29422;SDS011;16399;51.686;8.684;2024-01-27T07:44:06;16.15;;;4.10;;
29422;SDS011;16399;51.686;8.684;2024-01-27T07:47:09;20.57;;;4.65;;
29422;SDS011;16399;51.686;8.684;2024-01-27T07:50:11;20.60;;;4.60;;
29422;SDS011;16399;51.686;8.684;2024-01-27T07:53:19;13.45;;;3.10;;
29422;SDS011;16399;51.686;8.684;2024-01-27T07:56:18;16.40;;;4.20;;
29422;SDS011;16399;51.686;8.684;2024-01-27T07:59:20;22.90;;;3.67;;
29422;SDS011;16399;51.686;8.684;2024-01-27T08:02:22;18.52;;;4.42;;
29422;SDS011;16399;51.686;8.684;2024-01-27T08:05:26;17.65;;;3.85;;
29422;SDS011;16399;51.686;8.684;2024-01-27T08:08:29;21.20;;;3.60;;
29422;SDS011;16399;51.686;8.684;2024-01-27T08:11:31;13.58;;;3.55;;
29422;SDS011;16399;51.686;8.684;2024-01-27T08:14:33;15.23;;;3.35;;
29422;SDS011;16399;51.686;8.684;2024-01-27T08:17:36;18.80;;;3.65;;
29422;SDS011;16399;51.686;8.684;2024-01-27T08:20:38;22.98;;;4.60;;
29422;SDS011;16399;51.686;8.684;2024-01-27T08:23:40;21.35;;;4.15;;
29422;SDS011;16399;51.686;8.684;2024-01-27T08:26:43;16.07;;;3.37;;
29422;SDS011;16399;51.686;8.684;2024-01-27T08:29:46;17.23;;;4.20;;
29422;SDS011;16399;51.686;8.684;2024-01-27T08:32:49;15.32;;;3.35;;
29422;SDS011;16399;51.686;8.684;2024-01-27T08:35:51;18.07;;;3.22;;
29422;SDS011;16399;51.686;8.684;2024-01-27T08:38:53;15.30;;;2.60;;
29422;SDS011;16399;51.686;8.684;2024-01-27T08:41:56;13.45;;;3.27;;
29422;SDS011;16399;51.686;8.684;2024-01-27T08:44:58;19.45;;;3.40;;
29422;SDS011;16399;51.686;8.684;2024-01-27T08:48:00;19.65;;;3.85;;
29422;SDS011;16399;51.686;8.684;2024-01-27T08:51:03;16.07;;;3.15;;
29422;SDS011;16399;51.686;8.684;2024-01-27T08:54:05;16.57;;;3.25;;
29422;SDS011;16399;51.686;8.684;2024-01-27T08:57:07;15.05;;;3.20;;
29422;SDS011;16399;51.686;8.684;2024-01-27T09:00:10;15.35;;;3.37;;
29422;SDS011;16399;51.686;8.684;2024-01-27T09:03:13;21.73;;;3.27;;
29422;SDS011;16399;51.686;8.684;2024-01-27T09:06:17;12.37;;;3.05;;
29422;SDS011;16399;51.686;8.684;2024-01-27T09:09:19;22.17;;;3.37;;
29422;SDS011;16399;51.686;8.684;2024-01-27T09:12:21;16.05;;;3.12;;
29422;SDS011;16399;51.686;8.684;2024-01-27T09:15:23;18.10;;;3.47;;
29422;SDS011;16399;51.686;8.684;2024-01-27T09:18:26;19.10;;;4.00;;
29422;SDS011;16399;51.686;8.684;2024-01-27T09:21:28;15.53;;;4.05;;
29422;SDS011;16399;51.686;8.684;2024-01-27T09:24:32;17.40;;;3.27;;
29422;SDS011;16399;51.686;8.684;2024-01-27T09:27:35;20.90;;;3.75;;
29422;SDS011;16399;51.686;8.684;2024-01-27T09:30:37;15.35;;;3.20;;
29422;SDS011;16399;51.686;8.684;2024-01-27T09:33:39;14.33;;;3.42;;
29422;SDS011;16399;51.686;8.684;2024-01-27T09:36:43;28.73;;;5.15;;
29422;SDS011;16399;51.686;8.684;2024-01-27T09:39:45;16.23;;;4.00;;
29422;SDS011;16399;51.686;8.684;2024-01-27T09:42:51;18.67;;;3.92;;
29422;SDS011;16399;51.686;8.684;2024-01-27T09:45:55;14.45;;;3.10;;
29422;SDS011;16399;51.686;8.684;2024-01-27T09:48:57;18.82;;;3.85;;
29422;SDS011;16399;51.686;8.684;2024-01-27T09:52:00;19.52;;;4.03;;
29422;SDS011;16399;51.686;8.684;2024-01-27T09:55:02;18.55;;;4.50;;
29422;SDS011;16399;51.686;8.684;2024-01-27T09:58:05;25.75;;;4.62;;
29422;SDS011;16399;51.686;8.684;2024-01-27T10:01:07;23.75;;;5.60;;
29422;SDS011;16399;51.686;8.684;2024-01-27T10:04:10;18.57;;;3.92;;
29422;SDS011;16399;51.686;8.684;2024-01-27T10:07:14;20.37;;;5.15;;
29422;SDS011;16399;51.686;8.684;2024-01-27T10:10:16;19.37;;;3.60;;
29422;SDS011;16399;51.686;8.684;2024-01-27T10:13:18;20.68;;;3.50;;
29422;SDS011;16399;51.686;8.684;2024-01-27T10:16:22;22.40;;;4.28;;
29422;SDS011;16399;51.686;8.684;2024-01-27T10:19:24;15.55;;;4.22;;
29422;SDS011;16399;51.686;8.684;2024-01-27T10:22:27;26.25;;;8.70;;
29422;SDS011;16399;51.686;8.684;2024-01-27T10:25:29;13.85;;;5.35;;
29422;SDS011;16399;51.686;8.684;2024-01-27T10:28:32;19.40;;;4.30;;
29422;SDS011;16399;51.686;8.684;2024-01-27T10:31:34;22.50;;;5.65;;
29422;SDS011;16399;51.686;8.684;2024-01-27T10:34:37;13.65;;;3.72;;
29422;SDS011;16399;51.686;8.684;2024-01-27T10:37:39;21.42;;;3.58;;
29422;SDS011;16399;51.686;8.684;2024-01-27T10:40:41;10.28;;;3.52;;
29422;SDS011;16399;51.686;8.684;2024-01-27T10:43:43;16.93;;;4.55;;
29422;SDS011;16399;51.686;8.684;2024-01-27T10:46:47;22.10;;;3.90;;
29422;SDS011;16399;51.686;8.684;2024-01-27T10:49:50;20.43;;;3.58;;
29422;SDS011;16399;51.686;8.684;2024-01-27T10:55:59;17.82;;;3.65;;
29422;SDS011;16399;51.686;8.684;2024-01-27T10:59:05;19.40;;;3.83;;
29422;SDS011;16399;51.686;8.684;2024-01-27T11:05:14;16.57;;;3.52;;
29422;SDS011;16399;51.686;8.684;2024-01-27T11:08:18;21.82;;;3.77;;
29422;SDS011;16399;51.686;8.684;2024-01-27T11:11:23;25.85;;;4.30;;
29422;SDS011;16399;51.686;8.684;2024-01-27T11:14:25;16.77;;;3.25;;
29422;SDS011;16399;51.686;8.684;2024-01-27T11:17:27;14.07;;;3.72;;
29422;SDS011;16399;51.686;8.684;2024-01-27T11:20:31;22.75;;;4.15;;
29422;SDS011;16399;51.686;8.684;2024-01-27T11:23:34;17.52;;;3.70;;
29422;SDS011;16399;51.686;8.684;2024-01-27T11:26:37;13.98;;;3.90;;
29422;SDS011;16399;51.686;8.684;2024-01-27T11:29:46;18.02;;;4.92;;
29422;SDS011;16399;51.686;8.684;2024-01-27T11:32:49;19.80;;;4.28;;
29422;SDS011;16399;51.686;8.684;2024-01-27T11:36:05;17.92;;;3.52;;
29422;SDS011;16399;51.686;8.684;2024-01-27T11:39:05;14.18;;;3.37;;
29422;SDS011;16399;51.686;8.684;2024-01-27T11:42:16;18.15;;;3.90;;
29422;SDS011;16399;51.686;8.684;2024-01-27T11:45:15;14.25;;;2.87;;
29422;SDS011;16399;51.686;8.684;2024-01-27T11:48:17;16.75;;;3.37;;
29422;SDS011;16399;51.686;8.684;2024-01-27T11:51:19;38.63;;;14.23;;
29422;SDS011;16399;51.686;8.684;2024-01-27T11:54:23;21.43;;;5.97;;
29422;SDS011;16399;51.686;8.684;2024-01-27T11:57:26;52.27;;;20.40;;
29422;SDS011;16399;51.686;8.684;2024-01-27T12:00:28;17.73;;;4.10;;
29422;SDS011;16399;51.686;8.684;2024-01-27T12:03:31;17.10;;;2.70;;
29422;SDS011;16399;51.686;8.684;2024-01-27T12:06:34;15.53;;;3.67;;
29422;SDS011;16399;51.686;8.684;2024-01-27T12:09:37;12.25;;;2.70;;
29422;SDS011;16399;51.686;8.684;2024-01-27T12:12:40;25.12;;;3.15;;
29422;SDS011;16399;51.686;8.684;2024-01-27T12:15:42;11.80;;;3.50;;
29422;SDS011;16399;51.686;8.684;2024-01-27T12:18:45;15.55;;;3.05;;
29422;SDS011;16399;51.686;8.684;2024-01-27T12:21:48;15.05;;;3.17;;
29422;SDS011;16399;51.686;8.684;2024-01-27T12:24:50;13.60;;;2.60;;
29422;SDS011;16399;51.686;8.684;2024-01-27T12:27:53;12.68;;;2.67;;
29422;SDS011;16399;51.686;8.684;2024-01-27T12:30:55;16.90;;;2.77;;
29422;SDS011;16399;51.686;8.684;2024-01-27T12:33:57;17.62;;;3.00;;
29422;SDS011;16399;51.686;8.684;2024-01-27T12:37:00;12.85;;;2.72;;
29422;SDS011;16399;51.686;8.684;2024-01-27T12:40:16;12.10;;;2.72;;
29422;SDS011;16399;51.686;8.684;2024-01-27T12:43:12;13.95;;;3.80;;
29422;SDS011;16399;51.686;8.684;2024-01-27T12:46:15;19.10;;;3.33;;
29422;SDS011;16399;51.686;8.684;2024-01-27T12:49:18;14.10;;;3.70;;
29422;SDS011;16399;51.686;8.684;2024-01-27T12:52:20;15.25;;;3.00;;
29422;SDS011;16399;51.686;8.684;2024-01-27T12:55:24;14.87;;;3.27;;
29422;SDS011;16399;51.686;8.684;2024-01-27T12:58:27;14.83;;;2.90;;
29422;SDS011;16399;51.686;8.684;2024-01-27T13:01:29;15.38;;;3.08;;
29422;SDS011;16399;51.686;8.684;2024-01-27T13:04:31;11.00;;;2.87;;
29422;SDS011;16399;51.686;8.684;2024-01-27T13:07:34;13.68;;;3.02;;
29422;SDS011;16399;51.686;8.684;2024-01-27T13:10:36;17.27;;;3.00;;
29422;SDS011;16399;51.686;8.684;2024-01-27T13:13:39;16.70;;;2.35;;
29422;SDS011;16399;51.686;8.684;2024-01-27T13:16:42;12.20;;;3.00;;
29422;SDS011;16399;51.686;8.684;2024-01-27T13:19:44;10.93;;;2.85;;
29422;SDS011;16399;51.686;8.684;2024-01-27T13:22:47;8.70;;;2.02;;
29422;SDS011;16399;51.686;8.684;2024-01-27T13:25:49;7.53;;;1.72;;
29422;SDS011;16399;51.686;8.684;2024-01-27T13:28:51;11.68;;;2.42;;
29422;SDS011;16399;51.686;8.684;2024-01-27T13:31:54;8.23;;;1.82;;
29422;SDS011;16399;51.686;8.684;2024-01-27T13:34:58;8.90;;;1.77;;
29422;SDS011;16399;51.686;8.684;2024-01-27T13:38:00;41.92;;;12.73;;
29422;SDS011;16399;51.686;8.684;2024-01-27T13:41:02;38.55;;;14.75;;
29422;SDS011;16399;51.686;8.684;2024-01-27T13:44:05;20.72;;;4.60;;
29422;SDS011;16399;51.686;8.684;2024-01-27T13:47:07;66.53;;;23.95;;
29422;SDS011;16399;51.686;8.684;2024-01-27T13:50:11;49.00;;;16.82;;
29422;SDS011;16399;51.686;8.684;2024-01-27T13:53:13;18.37;;;3.70;;
29422;SDS011;16399;51.686;8.684;2024-01-27T13:56:15;17.05;;;4.75;;
29422;SDS011;16399;51.686;8.684;2024-01-27T13:59:18;11.45;;;2.80;;
29422;SDS011;16399;51.686;8.684;2024-01-27T14:02:20;13.55;;;3.00;;
29422;SDS011;16399;51.686;8.684;2024-01-27T14:05:24;16.32;;;2.95;;
29422;SDS011;16399;51.686;8.684;2024-01-27T14:08:26;13.00;;;2.22;;
29422;SDS011;16399;51.686;8.684;2024-01-27T14:11:28;11.90;;;2.30;;
29422;SDS011;16399;51.686;8.684;2024-01-27T14:14:31;15.55;;;2.33;;
29422;SDS011;16399;51.686;8.684;2024-01-27T14:17:33;13.20;;;2.22;;
29422;SDS011;16399;51.686;8.684;2024-01-27T14:20:39;12.60;;;2.60;;
29422;SDS011;16399;51.686;8.684;2024-01-27T14:23:41;12.85;;;2.35;;
29422;SDS011;16399;51.686;8.684;2024-01-27T14:26:43;15.03;;;2.60;;
29422;SDS011;16399;51.686;8.684;2024-01-27T14:29:46;17.80;;;2.95;;
29422;SDS011;16399;51.686;8.684;2024-01-27T14:32:48;16.80;;;2.62;;
29422;SDS011;16399;51.686;8.684;2024-01-27T14:35:50;13.30;;;3.10;;
29422;SDS011;16399;51.686;8.684;2024-01-27T14:38:53;13.48;;;3.00;;
29422;SDS011;16399;51.686;8.684;2024-01-27T14:41:55;15.20;;;2.92;;
29422;SDS011;16399;51.686;8.684;2024-01-27T14:44:57;16.45;;;2.80;;
29422;SDS011;16399;51.686;8.684;2024-01-27T14:47:59;12.35;;;2.40;;
29422;SDS011;16399;51.686;8.684;2024-01-27T14:51:02;18.07;;;2.70;;
29422;SDS011;16399;51.686;8.684;2024-01-27T14:54:06;19.60;;;2.50;;
29422;SDS011;16399;51.686;8.684;2024-01-27T14:57:09;11.85;;;2.72;;
29422;SDS011;16399;51.686;8.684;2024-01-27T15:00:11;13.50;;;2.35;;
29422;SDS011;16399;51.686;8.684;2024-01-27T15:03:17;10.68;;;2.30;;
29422;SDS011;16399;51.686;8.684;2024-01-27T15:06:24;10.82;;;2.40;;
29422;SDS011;16399;51.686;8.684;2024-01-27T15:09:26;13.38;;;2.30;;
29422;SDS011;16399;51.686;8.684;2024-01-27T15:12:28;8.98;;;2.55;;
29422;SDS011;16399;51.686;8.684;2024-01-27T15:15:31;22.30;;;2.98;;
29422;SDS011;16399;51.686;8.684;2024-01-27T15:18:33;12.40;;;2.67;;
29422;SDS011;16399;51.686;8.684;2024-01-27T15:21:37;18.32;;;2.95;;
29422;SDS011;16399;51.686;8.684;2024-01-27T15:24:40;17.02;;;2.52;;
29422;SDS011;16399;51.686;8.684;2024-01-27T15:27:42;13.93;;;2.50;;
29422;SDS011;16399;51.686;8.684;2024-01-27T15:30:44;13.45;;;2.42;;
29422;SDS011;16399;51.686;8.684;2024-01-27T15:33:49;16.27;;;2.95;;
29422;SDS011;16399;51.686;8.684;2024-01-27T15:36:52;20.90;;;2.72;;
29422;SDS011;16399;51.686;8.684;2024-01-27T15:39:54;15.60;;;2.83;;
29422;SDS011;16399;51.686;8.684;2024-01-27T15:42:56;14.87;;;2.50;;
29422;SDS011;16399;51.686;8.684;2024-01-27T15:45:59;16.15;;;2.50;;
29422;SDS011;16399;51.686;8.684;2024-01-27T15:49:05;12.15;;;2.60;;
29422;SDS011;16399;51.686;8.684;2024-01-27T15:52:08;9.28;;;2.37;;
29422;SDS011;16399;51.686;8.684;2024-01-27T15:55:10;15.55;;;2.37;;
29422;SDS011;16399;51.686;8.684;2024-01-27T15:58:13;9.20;;;1.67;;
29422;SDS011;16399;51.686;8.684;2024-01-27T16:01:15;14.50;;;3.02;;
29422;SDS011;16399;51.686;8.684;2024-01-27T16:04:17;17.37;;;2.72;;
29422;SDS011;16399;51.686;8.684;2024-01-27T16:07:20;22.65;;;3.20;;
29422;SDS011;16399;51.686;8.684;2024-01-27T16:10:24;15.18;;;3.47;;
29422;SDS011;16399;51.686;8.684;2024-01-27T16:13:26;13.55;;;3.37;;
29422;SDS011;16399;51.686;8.684;2024-01-27T16:16:28;15.20;;;3.52;;
29422;SDS011;16399;51.686;8.684;2024-01-27T16:19:30;12.03;;;3.85;;
29422;SDS011;16399;51.686;8.684;2024-01-27T16:22:33;10.80;;;3.52;;
29422;SDS011;16399;51.686;8.684;2024-01-27T16:25:35;12.80;;;2.90;;
29422;SDS011;16399;51.686;8.684;2024-01-27T16:28:37;10.93;;;2.98;;
29422;SDS011;16399;51.686;8.684;2024-01-27T16:31:41;14.15;;;2.80;;
29422;SDS011;16399;51.686;8.684;2024-01-27T16:34:43;16.90;;;3.33;;
29422;SDS011;16399;51.686;8.684;2024-01-27T16:37:46;14.85;;;2.58;;
29422;SDS011;16399;51.686;8.684;2024-01-27T16:40:48;15.38;;;3.05;;
29422;SDS011;16399;51.686;8.684;2024-01-27T16:43:51;16.52;;;2.20;;
29422;SDS011;16399;51.686;8.684;2024-01-27T16:46:54;14.25;;;2.42;;
29422;SDS011;16399;51.686;8.684;2024-01-27T16:49:56;17.73;;;2.45;;
29422;SDS011;16399;51.686;8.684;2024-01-27T16:52:58;9.05;;;2.05;;
29422;SDS011;16399;51.686;8.684;2024-01-27T16:56:01;13.15;;;2.42;;
29422;SDS011;16399;51.686;8.684;2024-01-27T16:59:04;12.80;;;2.67;;
29422;SDS011;16399;51.686;8.684;2024-01-27T17:02:08;12.15;;;2.30;;
29422;SDS011;16399;51.686;8.684;2024-01-27T17:05:10;17.00;;;2.83;;
29422;SDS011;16399;51.686;8.684;2024-01-27T17:08:12;13.10;;;3.33;;
29422;SDS011;16399;51.686;8.684;2024-01-27T17:11:15;19.67;;;2.80;;
29422;SDS011;16399;51.686;8.684;2024-01-27T17:14:17;14.00;;;3.37;;
29422;SDS011;16399;51.686;8.684;2024-01-27T17:17:19;17.12;;;3.95;;
29422;SDS011;16399;51.686;8.684;2024-01-27T17:20:21;16.57;;;4.15;;
29422;SDS011;16399;51.686;8.684;2024-01-27T17:23:25;94.37;;;26.33;;
29422;SDS011;16399;51.686;8.684;2024-01-27T17:26:29;103.30;;;30.60;;
29422;SDS011;16399;51.686;8.684;2024-01-27T17:29:32;78.72;;;25.20;;
29422;SDS011;16399;51.686;8.684;2024-01-27T17:32:35;124.85;;;39.00;;
29422;SDS011;16399;51.686;8.684;2024-01-27T17:35:38;42.58;;;13.75;;
29422;SDS011;16399;51.686;8.684;2024-01-27T17:38:40;49.20;;;18.23;;
29422;SDS011;16399;51.686;8.684;2024-01-27T17:41:43;32.75;;;10.18;;
29422;SDS011;16399;51.686;8.684;2024-01-27T17:44:45;22.62;;;7.55;;
29422;SDS011;16399;51.686;8.684;2024-01-27T17:47:48;21.12;;;7.33;;
29422;SDS011;16399;51.686;8.684;2024-01-27T17:50:51;21.73;;;6.33;;
29422;SDS011;16399;51.686;8.684;2024-01-27T17:53:54;28.15;;;7.37;;
29422;SDS011;16399;51.686;8.684;2024-01-27T17:56:56;25.17;;;6.35;;
29422;SDS011;16399;51.686;8.684;2024-01-27T17:59:59;20.10;;;6.22;;
29422;SDS011;16399;51.686;8.684;2024-01-27T18:03:01;19.17;;;6.50;;
29422;SDS011;16399;51.686;8.684;2024-01-27T18:06:04;20.12;;;6.85;;
29422;SDS011;16399;51.686;8.684;2024-01-27T18:09:06;20.80;;;6.50;;
29422;SDS011;16399;51.686;8.684;2024-01-27T18:12:09;18.42;;;6.20;;